sensor_id;sensor_type;location;lat;lon;timestamp;pressure;altitude;pressure_sealevel;temperature;humidity
69784;BME280;57054;51.978;4.498;2023-07-31T00:01:04;100979.53;;;17.07;100.00
69784;BME280;57054;51.978;4.498;2023-07-31T00:03:30;100970.75;;;17.06;100.00
69784;BME280;57054;51.978;4.498;2023-07-31T00:05:55;100966.41;;;17.05;100.00
69784;BME280;57054;51.978;4.498;2023-07-31T00:08:20;100972.53;;;17.06;100.00
69784;BME280;57054;51.978;4.498;2023-07-31T00:10:47;100976.91;;;17.07;100.00
69784;BME280;57054;51.978;4.498;2023-07-31T00:13:12;100977.81;;;17.06;100.00
69784;BME280;57054;51.978;4.498;2023-07-31T00:15:37;100973.50;;;17.05;100.00
69784;BME280;57054;51.978;4.498;2023-07-31T00:18:03;100971.69;;;17.05;100.00
69784;BME280;57054;51.978;4.498;2023-07-31T00:20:28;100977.00;;;17.05;100.00
69784;BME280;57054;51.978;4.498;2023-07-31T00:22:54;100966.41;;;17.05;100.00
69784;BME280;57054;51.978;4.498;2023-07-31T00:25:19;100958.47;;;17.05;100.00
69784;BME280;57054;51.978;4.498;2023-07-31T00:27:44;100962.94;;;17.05;100.00
69784;BME280;57054;51.978;4.498;2023-07-31T00:30:11;100962.06;;;17.04;100.00
69784;BME280;57054;51.978;4.498;2023-07-31T00:32:36;100959.41;;;17.04;100.00
69784;BME280;57054;51.978;4.498;2023-07-31T00:35:02;100968.31;;;17.03;100.00
69784;BME280;57054;51.978;4.498;2023-07-31T00:37:28;100962.19;;;17.03;100.00
69784;BME280;57054;51.978;4.498;2023-07-31T00:39:53;100960.38;;;17.03;100.00
69784;BME280;57054;51.978;4.498;2023-07-31T00:42:18;100970.13;;;17.03;100.00
69784;BME280;57054;51.978;4.498;2023-07-31T00:44:44;100963.03;;;17.03;100.00
69784;BME280;57054;51.978;4.498;2023-07-31T00:47:09;100963.13;;;17.02;100.00
69784;BME280;57054;51.978;4.498;2023-07-31T00:49:35;100966.72;;;17.01;100.00
69784;BME280;57054;51.978;4.498;2023-07-31T00:52:00;100970.22;;;17.01;100.00
69784;BME280;57054;51.978;4.498;2023-07-31T00:54:27;100965.84;;;17.00;100.00
69784;BME280;57054;51.978;4.498;2023-07-31T00:56:54;100964.19;;;16.99;100.00
69784;BME280;57054;51.978;4.498;2023-07-31T00:59:19;100972.13;;;16.99;100.00
69784;BME280;57054;51.978;4.498;2023-07-31T01:01:45;100979.19;;;16.99;100.00
69784;BME280;57054;51.978;4.498;2023-07-31T01:04:11;100962.56;;;16.97;100.00
69784;BME280;57054;51.978;4.498;2023-07-31T01:12:04;100965.44;;;16.94;100.00
69784;BME280;57054;51.978;4.498;2023-07-31T01:14:31;100949.56;;;16.94;100.00
69784;BME280;57054;51.978;4.498;2023-07-31T01:16:56;100952.19;;;16.94;100.00
69784;BME280;57054;51.978;4.498;2023-07-31T01:19:23;100948.69;;;16.93;100.00
69784;BME280;57054;51.978;4.498;2023-07-31T01:27:34;100949.66;;;16.92;100.00
69784;BME280;57054;51.978;4.498;2023-07-31T01:30:16;100949.66;;;16.92;100.00
69784;BME280;57054;51.978;4.498;2023-07-31T01:32:42;100946.13;;;16.92;100.00
69784;BME280;57054;51.978;4.498;2023-07-31T01:35:09;100936.53;;;16.91;100.00
69784;BME280;57054;51.978;4.498;2023-07-31T01:37:35;100935.69;;;16.90;100.00
69784;BME280;57054;51.978;4.498;2023-07-31T01:40:00;100941.06;;;16.88;100.00
69784;BME280;57054;51.978;4.498;2023-07-31T01:42:26;100934.81;;;16.89;100.00
69784;BME280;57054;51.978;4.498;2023-07-31T01:44:51;100924.34;;;16.88;100.00
69784;BME280;57054;51.978;4.498;2023-07-31T01:47:17;100933.22;;;16.87;100.00
69784;BME280;57054;51.978;4.498;2023-07-31T01:49:42;100940.19;;;16.88;100.00
69784;BME280;57054;51.978;4.498;2023-07-31T01:52:07;100924.34;;;16.88;100.00
69784;BME280;57054;51.978;4.498;2023-07-31T01:54:33;100916.53;;;16.86;100.00
69784;BME280;57054;51.978;4.498;2023-07-31T01:56:58;100910.34;;;16.86;100.00
69784;BME280;57054;51.978;4.498;2023-07-31T01:59:24;100897.13;;;16.86;100.00
69784;BME280;57054;51.978;4.498;2023-07-31T02:01:49;100898.94;;;16.85;100.00
69784;BME280;57054;51.978;4.498;2023-07-31T02:04:15;100886.56;;;16.86;100.00
69784;BME280;57054;51.978;4.498;2023-07-31T02:06:40;100886.56;;;16.86;100.00
69784;BME280;57054;51.978;4.498;2023-07-31T02:09:05;100883.91;;;16.86;100.00
69784;BME280;57054;51.978;4.498;2023-07-31T02:11:31;100890.16;;;16.85;100.00
69784;BME280;57054;51.978;4.498;2023-07-31T02:13:56;100879.59;;;16.85;100.00
69784;BME280;57054;51.978;4.498;2023-07-31T02:16:21;100876.06;;;16.84;100.00
69784;BME280;57054;51.978;4.498;2023-07-31T02:18:47;100875.25;;;16.84;100.00
69784;BME280;57054;51.978;4.498;2023-07-31T02:21:12;100882.25;;;16.85;100.00
69784;BME280;57054;51.978;4.498;2023-07-31T02:23:37;100882.34;;;16.83;100.00
69784;BME280;57054;51.978;4.498;2023-07-31T02:26:03;100870.91;;;16.83;100.00
69784;BME280;57054;51.978;4.498;2023-07-31T02:28:29;100877.94;;;16.82;100.00
69784;BME280;57054;51.978;4.498;2023-07-31T02:30:55;100878.84;;;16.83;100.00
69784;BME280;57054;51.978;4.498;2023-07-31T02:33:20;100868.34;;;16.81;100.00
69784;BME280;57054;51.978;4.498;2023-07-31T02:35:45;100876.28;;;16.81;100.00
69784;BME280;57054;51.978;4.498;2023-07-31T02:38:11;100881.56;;;16.81;100.00
69784;BME280;57054;51.978;4.498;2023-07-31T02:40:36;100883.38;;;16.81;100.00
69784;BME280;57054;51.978;4.498;2023-07-31T02:43:01;100875.53;;;16.79;100.00
69784;BME280;57054;51.978;4.498;2023-07-31T02:45:27;100867.59;;;16.79;100.00
69784;BME280;57054;51.978;4.498;2023-07-31T02:47:52;100872.13;;;16.77;100.00
69784;BME280;57054;51.978;4.498;2023-07-31T02:50:18;100867.97;;;16.73;100.00
69784;BME280;57054;51.978;4.498;2023-07-31T02:52:43;100861.00;;;16.72;100.00
69784;BME280;57054;51.978;4.498;2023-07-31T02:55:08;100859.22;;;16.73;100.00
69784;BME280;57054;51.978;4.498;2023-07-31T02:57:34;100840.69;;;16.73;100.00
69784;BME280;57054;51.978;4.498;2023-07-31T02:59:59;100835.50;;;16.71;100.00
69784;BME280;57054;51.978;4.498;2023-07-31T03:02:24;100840.88;;;16.69;100.00
69784;BME280;57054;51.978;4.498;2023-07-31T03:04:50;100844.28;;;16.72;100.00
69784;BME280;57054;51.978;4.498;2023-07-31T03:07:15;100837.31;;;16.70;100.00
69784;BME280;57054;51.978;4.498;2023-07-31T03:09:41;100842.69;;;16.69;100.00
69784;BME280;57054;51.978;4.498;2023-07-31T03:12:06;100832.13;;;16.69;100.00
69784;BME280;57054;51.978;4.498;2023-07-31T03:14:32;100832.13;;;16.69;100.00
69784;BME280;57054;51.978;4.498;2023-07-31T03:16:57;100830.41;;;16.68;100.00
69784;BME280;57054;51.978;4.498;2023-07-31T03:19:23;100831.28;;;16.68;100.00
69784;BME280;57054;51.978;4.498;2023-07-31T03:21:48;100827.91;;;16.66;100.00
69784;BME280;57054;51.978;4.498;2023-07-31T03:24:14;100822.59;;;16.66;100.00
69784;BME280;57054;51.978;4.498;2023-07-31T03:26:39;100822.59;;;16.66;100.00
69784;BME280;57054;51.978;4.498;2023-07-31T03:29:07;100822.59;;;16.66;100.00
69784;BME280;57054;51.978;4.498;2023-07-31T03:31:32;100833.28;;;16.65;100.00
69784;BME280;57054;51.978;4.498;2023-07-31T03:33:58;100824.47;;;16.64;100.00
69784;BME280;57054;51.978;4.498;2023-07-31T03:36:23;100815.63;;;16.65;100.00
69784;BME280;57054;51.978;4.498;2023-07-31T03:38:48;100824.47;;;16.64;100.00
69784;BME280;57054;51.978;4.498;2023-07-31T03:41:14;100811.25;;;16.64;100.00
69784;BME280;57054;51.978;4.498;2023-07-31T03:43:39;100808.63;;;16.64;100.00
69784;BME280;57054;51.978;4.498;2023-07-31T03:46:04;100806.94;;;16.63;100.00
69784;BME280;57054;51.978;4.498;2023-07-31T03:48:30;100806.94;;;16.63;100.00
69784;BME280;57054;51.978;4.498;2023-07-31T03:50:55;100801.66;;;16.63;100.00
69784;BME280;57054;51.978;4.498;2023-07-31T03:53:21;100797.19;;;16.64;100.00
69784;BME280;57054;51.978;4.498;2023-07-31T03:55:46;100792.75;;;16.64;100.00
69784;BME280;57054;51.978;4.498;2023-07-31T03:58:12;100792.75;;;16.64;100.00
69784;BME280;57054;51.978;4.498;2023-07-31T04:00:37;100782.19;;;16.64;100.00
69784;BME280;57054;51.978;4.498;2023-07-31T04:03:03;100773.41;;;16.64;100.00
69784;BME280;57054;51.978;4.498;2023-07-31T04:05:30;100780.41;;;16.65;100.00
69784;BME280;57054;51.978;4.498;2023-07-31T04:07:55;100775.94;;;16.65;100.00
69784;BME280;57054;51.978;4.498;2023-07-31T04:10:21;100776.88;;;16.64;100.00
69784;BME280;57054;51.978;4.498;2023-07-31T04:12:46;100775.22;;;16.63;100.00
69784;BME280;57054;51.978;4.498;2023-07-31T04:15:11;100765.47;;;16.64;100.00
69784;BME280;57054;51.978;4.498;2023-07-31T04:17:37;100767.28;;;16.63;100.00
69784;BME280;57054;51.978;4.498;2023-07-31T04:20:02;100776.88;;;16.64;100.00
69784;BME280;57054;51.978;4.498;2023-07-31T04:22:28;100765.47;;;16.64;100.00
69784;BME280;57054;51.978;4.498;2023-07-31T04:24:53;100767.28;;;16.63;100.00
69784;BME280;57054;51.978;4.498;2023-07-31T04:27:19;100768.13;;;16.64;100.00
69784;BME280;57054;51.978;4.498;2023-07-31T04:29:44;100749.72;;;16.62;100.00
69784;BME280;57054;51.978;4.498;2023-07-31T04:32:11;100759.44;;;16.62;100.00
69784;BME280;57054;51.978;4.498;2023-07-31T04:34:36;100744.56;;;16.61;100.00
69784;BME280;57054;51.978;4.498;2023-07-31T04:37:02;100751.63;;;16.60;100.00
69784;BME280;57054;51.978;4.498;2023-07-31T04:39:27;100747.28;;;16.59;100.00
69784;BME280;57054;51.978;4.498;2023-07-31T04:41:52;100750.88;;;16.58;100.00
69784;BME280;57054;51.978;4.498;2023-07-31T04:44:18;100749.19;;;16.57;100.00
69784;BME280;57054;51.978;4.498;2023-07-31T04:46:43;100747.38;;;16.58;100.00
69784;BME280;57054;51.978;4.498;2023-07-31T04:49:08;100736.91;;;16.56;100.00
69784;BME280;57054;51.978;4.498;2023-07-31T04:51:34;100745.69;;;16.57;100.00
69784;BME280;57054;51.978;4.498;2023-07-31T04:53:59;100740.50;;;16.55;100.00
69784;BME280;57054;51.978;4.498;2023-07-31T04:56:24;100738.72;;;16.56;100.00
69784;BME280;57054;51.978;4.498;2023-07-31T04:58:50;100739.66;;;16.55;100.00
69784;BME280;57054;51.978;4.498;2023-07-31T05:01:15;100736.28;;;16.53;100.00
69784;BME280;57054;51.978;4.498;2023-07-31T05:03:41;100724.00;;;16.51;100.00
69784;BME280;57054;51.978;4.498;2023-07-31T05:06:06;100728.44;;;16.51;100.00
69784;BME280;57054;51.978;4.498;2023-07-31T05:08:31;100722.31;;;16.50;100.00
69784;BME280;57054;51.978;4.498;2023-07-31T05:10:57;100719.78;;;16.49;100.00
69784;BME280;57054;51.978;4.498;2023-07-31T05:13:22;100712.78;;;16.48;100.00
69784;BME280;57054;51.978;4.498;2023-07-31T05:15:47;100711.94;;;16.47;100.00
69784;BME280;57054;51.978;4.498;2023-07-31T05:18:14;100717.31;;;16.46;100.00
69784;BME280;57054;51.978;4.498;2023-07-31T05:20:40;100714.69;;;16.46;100.00
69784;BME280;57054;51.978;4.498;2023-07-31T05:23:06;100717.44;;;16.44;100.00
69784;BME280;57054;51.978;4.498;2023-07-31T05:25:32;100705.19;;;16.43;100.00
69784;BME280;57054;51.978;4.498;2023-07-31T05:27:57;100707.81;;;16.43;100.00
69784;BME280;57054;51.978;4.498;2023-07-31T05:30:22;100703.38;;;16.44;100.00
69784;BME280;57054;51.978;4.498;2023-07-31T05:32:48;100691.97;;;16.43;100.00
69784;BME280;57054;51.978;4.498;2023-07-31T05:35:13;100695.44;;;16.44;100.00
69784;BME280;57054;51.978;4.498;2023-07-31T05:37:39;100686.78;;;16.42;100.00
69784;BME280;57054;51.978;4.498;2023-07-31T05:40:05;100693.88;;;16.41;100.00
69784;BME280;57054;51.978;4.498;2023-07-31T05:42:30;100691.97;;;16.43;100.00
69784;BME280;57054;51.978;4.498;2023-07-31T05:44:56;100691.13;;;16.43;100.00
69784;BME280;57054;51.978;4.498;2023-07-31T05:47:21;100683.28;;;16.41;100.00
69784;BME280;57054;51.978;4.498;2023-07-31T05:49:48;100686.78;;;16.42;100.00
69784;BME280;57054;51.978;4.498;2023-07-31T05:52:14;100685.94;;;16.41;100.00
69784;BME280;57054;51.978;4.498;2023-07-31T05:54:39;100684.13;;;16.42;100.00
69784;BME280;57054;51.978;4.498;2023-07-31T05:57:05;100677.78;;;16.44;100.00
69784;BME280;57054;51.978;4.498;2023-07-31T05:59:30;100671.66;;;16.44;100.00
69784;BME280;57054;51.978;4.498;2023-07-31T06:01:58;100683.06;;;16.44;100.00
69784;BME280;57054;51.978;4.498;2023-07-31T06:04:23;100683.06;;;16.44;100.00
69784;BME280;57054;51.978;4.498;2023-07-31T06:06:50;100680.41;;;16.44;100.00
69784;BME280;57054;51.978;4.498;2023-07-31T06:09:16;100673.38;;;16.45;100.00
69784;BME280;57054;51.978;4.498;2023-07-31T06:11:41;100668.06;;;16.45;100.00
69784;BME280;57054;51.978;4.498;2023-07-31T06:14:06;100675.03;;;16.46;100.00
69784;BME280;57054;51.978;4.498;2023-07-31T06:16:32;100663.53;;;16.47;100.00
69784;BME280;57054;51.978;4.498;2023-07-31T06:18:57;100674.19;;;16.45;100.00
69784;BME280;57054;51.978;4.498;2023-07-31T06:21:23;100660.88;;;16.47;100.00
69784;BME280;57054;51.978;4.498;2023-07-31T06:23:48;100656.44;;;16.47;100.00
69784;BME280;57054;51.978;4.498;2023-07-31T06:26:13;100657.28;;;16.48;100.00
69784;BME280;57054;51.978;4.498;2023-07-31T06:28:39;100661.72;;;16.47;100.00
69784;BME280;57054;51.978;4.498;2023-07-31T06:31:05;100659.91;;;16.48;100.00
69784;BME280;57054;51.978;4.498;2023-07-31T06:33:30;100655.50;;;16.48;100.00
69784;BME280;57054;51.978;4.498;2023-07-31T06:35:56;100651.06;;;16.49;100.00
69784;BME280;57054;51.978;4.498;2023-07-31T06:38:26;100647.47;;;16.50;100.00
69784;BME280;57054;51.978;4.498;2023-07-31T06:40:51;100654.44;;;16.51;100.00
69784;BME280;57054;51.978;4.498;2023-07-31T06:43:17;100635.09;;;16.50;100.00
69784;BME280;57054;51.978;4.498;2023-07-31T06:45:42;100639.41;;;16.51;100.00
69784;BME280;57054;51.978;4.498;2023-07-31T06:48:07;100643.84;;;16.51;100.00
69784;BME280;57054;51.978;4.498;2023-07-31T06:50:33;100633.28;;;16.51;100.00
69784;BME280;57054;51.978;4.498;2023-07-31T06:52:58;100635.00;;;16.52;100.00
69784;BME280;57054;51.978;4.498;2023-07-31T06:55:25;100635.00;;;16.52;100.00
69784;BME280;57054;51.978;4.498;2023-07-31T06:57:52;100628.72;;;16.53;100.00
69784;BME280;57054;51.978;4.498;2023-07-31T07:00:19;100641.84;;;16.55;100.00
69784;BME280;57054;51.978;4.498;2023-07-31T07:02:45;100632.09;;;16.55;100.00
69784;BME280;57054;51.978;4.498;2023-07-31T07:05:13;100639.09;;;16.56;100.00
69784;BME280;57054;51.978;4.498;2023-07-31T07:07:38;100637.28;;;16.57;100.00
69784;BME280;57054;51.978;4.498;2023-07-31T07:10:04;100646.94;;;16.58;100.00
69784;BME280;57054;51.978;4.498;2023-07-31T07:12:31;100641.66;;;16.58;100.00
69784;BME280;57054;51.978;4.498;2023-07-31T07:14:56;100642.38;;;16.60;100.00
69784;BME280;57054;51.978;4.498;2023-07-31T07:17:25;100640.56;;;16.60;100.00
69784;BME280;57054;51.978;4.498;2023-07-31T07:19:51;100642.28;;;16.61;100.00
69784;BME280;57054;51.978;4.498;2023-07-31T07:22:17;100630.88;;;16.61;100.00
69784;BME280;57054;51.978;4.498;2023-07-31T07:24:43;100644.94;;;16.61;100.00
69784;BME280;57054;51.978;4.498;2023-07-31T07:27:08;100646.59;;;16.62;100.00
69784;BME280;57054;51.978;4.498;2023-07-31T07:29:34;100638.66;;;16.62;100.00
69784;BME280;57054;51.978;4.498;2023-07-31T07:32:00;100647.34;;;16.64;100.00
69784;BME280;57054;51.978;4.498;2023-07-31T07:34:26;100631.47;;;16.64;100.00
69784;BME280;57054;51.978;4.498;2023-07-31T07:36:52;100640.28;;;16.65;100.00
69784;BME280;57054;51.978;4.498;2023-07-31T07:39:17;100634.88;;;16.66;100.00
69784;BME280;57054;51.978;4.498;2023-07-31T07:41:43;100639.19;;;16.67;100.00
69784;BME280;57054;51.978;4.498;2023-07-31T07:44:08;100645.31;;;16.68;100.00
69784;BME280;57054;51.978;4.498;2023-07-31T07:46:34;100635.63;;;16.68;100.00
69784;BME280;57054;51.978;4.498;2023-07-31T07:48:59;100637.19;;;16.71;100.00
69784;BME280;57054;51.978;4.498;2023-07-31T07:51:25;100634.53;;;16.71;100.00
69784;BME280;57054;51.978;4.498;2023-07-31T07:53:50;100637.09;;;16.73;100.00
69784;BME280;57054;51.978;4.498;2023-07-31T07:56:16;100635.19;;;16.75;100.00
69784;BME280;57054;51.978;4.498;2023-07-31T07:58:41;100638.56;;;16.77;100.00
69784;BME280;57054;51.978;4.498;2023-07-31T08:01:06;100630.63;;;16.77;100.00
69784;BME280;57054;51.978;4.498;2023-07-31T08:03:32;100624.41;;;16.78;100.00
69784;BME280;57054;51.978;4.498;2023-07-31T08:06:01;100631.34;;;16.79;100.00
69784;BME280;57054;51.978;4.498;2023-07-31T08:08:27;100619.84;;;16.80;100.00
69784;BME280;57054;51.978;4.498;2023-07-31T08:10:53;100622.38;;;16.81;100.00
69784;BME280;57054;51.978;4.498;2023-07-31T08:13:18;100612.63;;;16.82;100.00
69784;BME280;57054;51.978;4.498;2023-07-31T08:15:44;100611.72;;;16.83;100.00
69784;BME280;57054;51.978;4.498;2023-07-31T08:18:09;100616.06;;;16.84;100.00
69784;BME280;57054;51.978;4.498;2023-07-31T08:20:36;100624.81;;;16.84;100.00
69784;BME280;57054;51.978;4.498;2023-07-31T08:23:01;100621.22;;;16.85;100.00
69784;BME280;57054;51.978;4.498;2023-07-31T08:25:27;100622.94;;;16.86;100.00
69784;BME280;57054;51.978;4.498;2023-07-31T08:27:52;100636.03;;;16.88;100.00
69784;BME280;57054;51.978;4.498;2023-07-31T08:30:19;100616.56;;;16.89;100.00
69784;BME280;57054;51.978;4.498;2023-07-31T08:32:44;100623.56;;;16.90;100.00
69784;BME280;57054;51.978;4.498;2023-07-31T08:35:09;100620.94;;;16.90;100.00
69784;BME280;57054;51.978;4.498;2023-07-31T08:37:35;100619.13;;;16.91;100.00
69784;BME280;57054;51.978;4.498;2023-07-31T08:40:01;100615.63;;;16.90;100.00
69784;BME280;57054;51.978;4.498;2023-07-31T08:42:26;100612.84;;;16.92;100.00
69784;BME280;57054;51.978;4.498;2023-07-31T08:44:52;100605.78;;;16.92;100.00
69784;BME280;57054;51.978;4.498;2023-07-31T08:47:19;100603.88;;;16.94;100.00
69784;BME280;57054;51.978;4.498;2023-07-31T08:49:46;100604.72;;;16.95;100.00
69784;BME280;57054;51.978;4.498;2023-07-31T08:52:12;100606.41;;;16.96;100.00
69784;BME280;57054;51.978;4.498;2023-07-31T08:54:37;100614.25;;;16.97;100.00
69784;BME280;57054;51.978;4.498;2023-07-31T08:57:04;100608.97;;;16.97;100.00
69784;BME280;57054;51.978;4.498;2023-07-31T08:59:31;100606.19;;;16.99;100.00
69784;BME280;57054;51.978;4.498;2023-07-31T09:02:04;100605.34;;;16.98;100.00
69784;BME280;57054;51.978;4.498;2023-07-31T09:04:30;100624.59;;;17.00;100.00
69784;BME280;57054;51.978;4.498;2023-07-31T09:07:00;100607.78;;;17.01;100.00
69784;BME280;57054;51.978;4.498;2023-07-31T09:09:26;100605.97;;;17.02;100.00
69784;BME280;57054;51.978;4.498;2023-07-31T09:11:52;100609.44;;;17.02;100.00
69784;BME280;57054;51.978;4.498;2023-07-31T09:14:18;100610.31;;;17.03;100.00
69784;BME280;57054;51.978;4.498;2023-07-31T09:16:58;100611.03;;;17.05;100.00
69784;BME280;57054;51.978;4.498;2023-07-31T09:19:35;100607.44;;;17.06;100.00
69784;BME280;57054;51.978;4.498;2023-07-31T09:22:03;100614.44;;;17.07;100.00
69784;BME280;57054;51.978;4.498;2023-07-31T09:24:32;100607.44;;;17.06;100.00
69784;BME280;57054;51.978;4.498;2023-07-31T09:27:00;100599.38;;;17.07;100.00
69784;BME280;57054;51.978;4.498;2023-07-31T09:29:27;100600.13;;;17.10;100.00
69784;BME280;57054;51.978;4.498;2023-07-31T09:31:54;100610.59;;;17.11;100.00
69784;BME280;57054;51.978;4.498;2023-07-31T09:34:20;100606.13;;;17.12;100.00
69784;BME280;57054;51.978;4.498;2023-07-31T09:36:53;100603.38;;;17.13;100.00
69784;BME280;57054;51.978;4.498;2023-07-31T09:39:19;100598.09;;;17.13;100.00
69784;BME280;57054;51.978;4.498;2023-07-31T09:41:54;100599.69;;;17.16;100.00
69784;BME280;57054;51.978;4.498;2023-07-31T09:44:19;100586.47;;;17.16;100.00
69784;BME280;57054;51.978;4.498;2023-07-31T09:46:45;100596.06;;;17.17;100.00
69784;BME280;57054;51.978;4.498;2023-07-31T09:49:12;100597.69;;;17.19;100.00
69784;BME280;57054;51.978;4.498;2023-07-31T09:51:38;100595.88;;;17.20;100.00
69784;BME280;57054;51.978;4.498;2023-07-31T09:54:15;100602.88;;;17.21;100.00
69784;BME280;57054;51.978;4.498;2023-07-31T09:56:43;100591.31;;;17.22;100.00
69784;BME280;57054;51.978;4.498;2023-07-31T09:59:15;100596.50;;;17.23;100.00
69784;BME280;57054;51.978;4.498;2023-07-31T10:01:42;100592.03;;;17.24;100.00
69784;BME280;57054;51.978;4.498;2023-07-31T10:04:09;100584.81;;;17.26;100.00
69784;BME280;57054;51.978;4.498;2023-07-31T10:06:35;100590.97;;;17.26;100.00
69784;BME280;57054;51.978;4.498;2023-07-31T10:09:03;100582.06;;;17.27;100.00
69784;BME280;57054;51.978;4.498;2023-07-31T10:11:35;100575.84;;;17.29;100.00
69784;BME280;57054;51.978;4.498;2023-07-31T10:14:03;100582.81;;;17.30;100.00
69784;BME280;57054;51.978;4.498;2023-07-31T10:16:30;100589.78;;;17.31;100.00
69784;BME280;57054;51.978;4.498;2023-07-31T10:18:56;100598.47;;;17.33;100.00
69784;BME280;57054;51.978;4.498;2023-07-31T10:21:22;100596.53;;;17.35;100.00
69784;BME280;57054;51.978;4.498;2023-07-31T10:23:47;100595.50;;;17.37;100.00
69784;BME280;57054;51.978;4.498;2023-07-31T10:26:14;100592.72;;;17.39;100.00
69784;BME280;57054;51.978;4.498;2023-07-31T10:28:40;100591.78;;;17.40;100.00
69784;BME280;57054;51.978;4.498;2023-07-31T10:31:06;100592.50;;;17.42;100.00
69784;BME280;57054;51.978;4.498;2023-07-31T10:33:32;100602.16;;;17.43;100.00
69784;BME280;57054;51.978;4.498;2023-07-31T10:36:17;100596.84;;;17.43;100.00
69784;BME280;57054;51.978;4.498;2023-07-31T10:38:43;100594.19;;;17.43;100.00
69784;BME280;57054;51.978;4.498;2023-07-31T10:41:09;100592.28;;;17.45;100.00
69784;BME280;57054;51.978;4.498;2023-07-31T10:43:36;100593.94;;;17.46;100.00
69784;BME280;57054;51.978;4.498;2023-07-31T10:46:06;100588.66;;;17.46;100.00
69784;BME280;57054;51.978;4.498;2023-07-31T10:48:33;100586.88;;;17.46;100.00
69784;BME280;57054;51.978;4.498;2023-07-31T10:50:59;100594.56;;;17.50;100.00
69784;BME280;57054;51.978;4.498;2023-07-31T10:53:32;100583.97;;;17.50;100.00
69784;BME280;57054;51.978;4.498;2023-07-31T10:56:02;100593.63;;;17.51;100.00
69784;BME280;57054;51.978;4.498;2023-07-31T10:58:29;100589.16;;;17.51;100.00
69784;BME280;57054;51.978;4.498;2023-07-31T11:00:58;100579.41;;;17.52;100.00
69784;BME280;57054;51.978;4.498;2023-07-31T11:03:26;100583.75;;;17.53;100.00
69784;BME280;57054;51.978;4.498;2023-07-31T11:08:22;100566.06;;;17.53;100.00
69784;BME280;57054;51.978;4.498;2023-07-31T11:11:05;100567.66;;;17.56;100.00
69784;BME280;57054;51.978;4.498;2023-07-31T11:13:33;100566.56;;;17.58;100.00
69784;BME280;57054;51.978;4.498;2023-07-31T11:15:59;100561.28;;;17.58;100.00
69784;BME280;57054;51.978;4.498;2023-07-31T11:18:26;100561.16;;;17.60;100.00
69784;BME280;57054;51.978;4.498;2023-07-31T11:20:52;100554.94;;;17.61;100.00
69784;BME280;57054;51.978;4.498;2023-07-31T11:23:19;100569.84;;;17.62;100.00
69784;BME280;57054;51.978;4.498;2023-07-31T11:25:45;100563.50;;;17.64;100.00
69784;BME280;57054;51.978;4.498;2023-07-31T11:28:12;100561.69;;;17.65;100.00
69784;BME280;57054;51.978;4.498;2023-07-31T11:30:39;100557.94;;;17.68;100.00
69784;BME280;57054;51.978;4.498;2023-07-31T11:33:09;100558.06;;;17.66;100.00
69784;BME280;57054;51.978;4.498;2023-07-31T11:35:47;100555.19;;;17.69;100.00
69784;BME280;57054;51.978;4.498;2023-07-31T11:40:52;100559.38;;;17.72;100.00
69784;BME280;57054;51.978;4.498;2023-07-31T11:43:18;100561.09;;;17.73;100.00
69784;BME280;57054;51.978;4.498;2023-07-31T11:45:46;100566.28;;;17.74;100.00
69784;BME280;57054;51.978;4.498;2023-07-31T11:48:29;100571.56;;;17.74;100.00
69784;BME280;57054;51.978;4.498;2023-07-31T11:50:59;100579.53;;;17.74;100.00
69784;BME280;57054;51.978;4.498;2023-07-31T11:55:58;100576.66;;;17.77;100.00
69784;BME280;57054;51.978;4.498;2023-07-31T11:58:24;100568.72;;;17.77;100.00
69784;BME280;57054;51.978;4.498;2023-07-31T12:00:50;100566.78;;;17.79;100.00
69784;BME280;57054;51.978;4.498;2023-07-31T12:03:16;100552.56;;;17.80;100.00
69784;BME280;57054;51.978;4.498;2023-07-31T12:05:42;100545.50;;;17.81;100.00
69784;BME280;57054;51.978;4.498;2023-07-31T12:08:12;100553.28;;;17.82;100.00
69784;BME280;57054;51.978;4.498;2023-07-31T12:10:38;100553.19;;;17.84;100.00
69784;BME280;57054;51.978;4.498;2023-07-31T12:13:07;100546.09;;;17.84;100.00
69784;BME280;57054;51.978;4.498;2023-07-31T12:15:37;100553.09;;;17.86;100.00
69784;BME280;57054;51.978;4.498;2023-07-31T12:18:14;100544.31;;;17.85;100.00
69784;BME280;57054;51.978;4.498;2023-07-31T12:20:45;100538.03;;;17.86;100.00
69784;BME280;57054;51.978;4.498;2023-07-31T12:25:40;100522.88;;;17.88;100.00
69784;BME280;57054;51.978;4.498;2023-07-31T12:28:06;100523.75;;;17.89;100.00
69784;BME280;57054;51.978;4.498;2023-07-31T12:30:37;100529.88;;;17.89;100.00
69784;BME280;57054;51.978;4.498;2023-07-31T12:33:15;100534.22;;;17.90;100.00
69784;BME280;57054;51.978;4.498;2023-07-31T12:35:44;100524.56;;;17.89;100.00
69784;BME280;57054;51.978;4.498;2023-07-31T12:38:11;100513.97;;;17.89;100.00
69784;BME280;57054;51.978;4.498;2023-07-31T12:40:38;100510.22;;;17.92;100.00
69784;BME280;57054;51.978;4.498;2023-07-31T12:43:04;100503.16;;;17.92;100.00
69784;BME280;57054;51.978;4.498;2023-07-31T12:45:30;100515.41;;;17.93;100.00
69784;BME280;57054;51.978;4.498;2023-07-31T12:47:57;100506.63;;;17.93;100.00
69784;BME280;57054;51.978;4.498;2023-07-31T12:50:22;100509.19;;;17.94;100.00
69784;BME280;57054;51.978;4.498;2023-07-31T12:52:48;100516.13;;;17.95;100.00
69784;BME280;57054;51.978;4.498;2023-07-31T12:55:14;100520.59;;;17.95;100.00
69784;BME280;57054;51.978;4.498;2023-07-31T12:57:40;100526.75;;;17.95;100.00